Time;durP1;ratioP1;P1;durP2;ratioP2;P2;SDS_P1;SDS_P2;PMS_P1;PMS_P2;Temp;Humidity;BMP_temperature;BMP_pressure;BME280_temperature;BME280_humidity;BME280_pressure;Samples;Min_cycle;Max_cycle;Signal;HPM_P1;HPM_P2
2022/08/14 00:00:14;;;;;;;3.97;2.70;;;;;;;26.12;43.00;99756.22;5092001;28;20174;-65
2022/08/14 00:02:40;;;;;;;5.13;2.70;;;;;;;26.11;42.84;99754.56;5092158;28;20216;-65
2022/08/14 00:05:07;;;;;;;4.23;2.87;;;;;;;26.11;43.25;99743.84;5090623;28;20417;-65
2022/08/14 00:07:34;;;;;;;7.73;3.00;;;;;;;26.09;43.25;99740.56;5091943;28;20178;-65
2022/08/14 00:10:00;;;;;;;6.10;2.83;;;;;;;26.10;42.88;99741.38;5091751;28;20837;-65
2022/08/14 00:12:25;;;;;;;3.93;2.93;;;;;;;26.08;43.26;99736.03;5073450;28;20523;-65
2022/08/14 00:14:52;;;;;;;4.30;2.83;;;;;;;26.08;43.14;99736.03;5091878;28;20515;-65
2022/08/14 00:17:17;;;;;;;5.27;3.00;;;;;;;26.08;43.09;99738.94;5091304;28;20606;-65
2022/08/14 00:19:42;;;;;;;5.37;2.90;;;;;;;26.08;43.49;99738.94;5091129;28;20424;-65
2022/08/14 00:22:08;;;;;;;3.80;2.97;;;;;;;26.09;43.28;99739.75;5090761;28;20170;-65
2022/08/14 00:24:34;;;;;;;5.60;2.70;;;;;;;26.08;43.33;99744.72;5090672;28;20196;-65
2022/08/14 00:26:59;;;;;;;4.20;2.67;;;;;;;26.07;43.45;99754.66;5090811;28;20346;-65
2022/08/14 00:29:25;;;;;;;3.60;2.40;;;;;;;26.07;43.38;99737.31;5089355;28;20202;-65
2022/08/14 00:31:51;;;;;;;2.97;2.50;;;;;;;26.08;43.16;99735.19;5089857;28;20201;-65
2022/08/14 00:34:16;;;;;;;5.60;2.90;;;;;;;26.06;43.57;99735.69;5091512;28;20416;-65
2022/08/14 00:36:42;;;;;;;3.50;2.70;;;;;;;26.05;43.07;99739.81;5073436;28;20575;-65
2022/08/14 00:39:07;;;;;;;4.33;2.50;;;;;;;26.03;43.32;99730.78;5073358;28;20646;-65
2022/08/14 00:41:33;;;;;;;3.90;2.70;;;;;;;26.04;43.48;99729.50;5089955;28;20709;-65
2022/08/14 00:43:58;;;;;;;4.10;2.53;;;;;;;26.03;43.58;99729.94;5091415;28;20634;-65
2022/08/14 00:46:23;;;;;;;5.70;2.80;;;;;;;26.03;43.23;99729.94;5089852;28;20224;-65
2022/08/14 00:49:11;;;;;;;5.00;2.50;;;;;;;26.03;43.46;99736.56;5085975;28;20209;-65
2022/08/14 00:51:37;;;;;;;4.50;2.53;;;;;;;26.01;43.78;99744.03;5091282;28;20190;-65
2022/08/14 00:54:03;;;;;;;5.60;2.73;;;;;;;25.99;43.04;99735.81;5091155;28;20964;-65
2022/08/14 00:56:28;;;;;;;7.17;2.90;;;;;;;25.99;43.49;99727.13;5089636;28;20561;-65
2022/08/14 00:58:54;;;;;;;6.63;3.03;;;;;;;25.98;43.45;99725.50;5091204;28;20537;-65
2022/08/14 01:01:20;;;;;;;4.00;2.67;;;;;;;25.99;43.83;99730.03;5073081;28;20211;-65
2022/08/14 01:03:45;;;;;;;4.20;2.67;;;;;;;26.01;44.19;99732.47;5091159;28;20416;-65
2022/08/14 01:06:13;;;;;;;4.40;2.90;;;;;;;25.98;43.61;99716.81;5091099;28;20182;-65
2022/08/14 01:08:42;;;;;;;4.07;3.10;;;;;;;25.98;44.29;99708.16;5073204;28;20217;-65
2022/08/14 01:11:08;;;;;;;4.23;2.73;;;;;;;25.99;43.87;99712.66;5090796;28;20476;-65
2022/08/14 01:13:38;;;;;;;7.10;2.60;;;;;;;25.98;43.96;99716.81;5091010;28;20420;-65
2022/08/14 01:16:06;;;;;;;3.60;2.70;;;;;;;25.97;43.93;99714.38;5089602;28;20208;-65
2022/08/14 01:21:32;;;;;;;2.90;2.03;;;;;;;25.95;43.73;99708.22;5090176;28;20411;-65
2022/08/14 01:23:58;;;;;;;5.37;2.50;;;;;;;25.94;43.57;99704.50;5088921;28;20510;-65
2022/08/14 01:26:47;;;;;;;3.50;2.40;;;;;;;25.92;43.61;99701.25;5070746;28;20865;-65
2022/08/14 01:29:12;;;;;;;4.13;2.50;;;;;;;25.92;43.72;99706.22;5090815;28;20246;-65
2022/08/14 01:31:51;;;;;;;3.07;2.47;;;;;;;25.90;43.72;99709.50;5089882;28;20424;-65
2022/08/14 01:34:16;;;;;;;5.27;2.50;;;;;;;25.90;43.76;99700.84;5092282;28;20671;-65
2022/08/14 01:36:42;;;;;;;4.90;2.30;;;;;;;25.89;43.88;99702.09;5088170;28;20555;-65
2022/08/14 01:39:12;;;;;;;4.63;2.70;;;;;;;25.91;43.60;99704.56;5093924;28;20536;-65
2022/08/14 01:41:38;;;;;;;3.47;2.40;;;;;;;25.89;43.61;99690.53;5092490;28;20641;-65
2022/08/14 01:44:11;;;;;;;4.00;2.83;;;;;;;25.90;43.47;99688.47;5093644;28;20422;-65
2022/08/14 01:46:38;;;;;;;4.00;2.70;;;;;;;25.89;43.68;99676.06;5080322;28;20706;-65
2022/08/14 01:49:06;;;;;;;3.97;2.27;;;;;;;25.89;44.05;99683.94;5072091;28;20460;-65
2022/08/14 01:51:31;;;;;;;4.33;2.50;;;;;;;25.89;43.89;99673.19;5073640;28;20452;-65
2022/08/14 01:53:59;;;;;;;3.70;2.40;;;;;;;25.87;43.84;99667.03;5073363;28;20516;-65
2022/08/14 01:56:34;;;;;;;4.40;2.80;;;;;;;25.88;43.80;99665.75;5071971;28;20179;-65
2022/08/14 01:59:00;;;;;;;4.00;2.40;;;;;;;25.88;43.62;99659.97;5072425;28;20397;-65
2022/08/14 02:01:26;;;;;;;3.53;2.30;;;;;;;25.87;43.56;99658.34;5074987;28;20479;-65
2022/08/14 02:03:51;;;;;;;5.20;3.00;;;;;;;25.86;44.04;99653.84;5076159;28;20186;-65
2022/08/14 02:06:17;;;;;;;8.70;2.50;;;;;;;25.86;44.29;99656.72;5094261;28;20182;-65
2022/08/14 02:08:42;;;;;;;3.33;2.23;;;;;;;25.86;43.92;99662.53;5092935;28;20201;-65
2022/08/14 02:11:21;;;;;;;6.40;2.80;;;;;;;25.86;43.81;99656.72;5092368;28;20233;-65
2022/08/14 02:13:55;;;;;;;3.73;2.77;;;;;;;25.86;43.92;99653.00;5092875;28;20238;-65
2022/08/14 02:16:24;;;;;;;3.13;2.20;;;;;;;25.85;43.99;99654.28;5093900;28;20449;-65
2022/08/14 02:18:52;;;;;;;4.57;2.37;;;;;;;25.85;44.15;99657.97;5075730;28;20412;-65
2022/08/14 02:21:17;;;;;;;4.30;2.67;;;;;;;25.84;44.22;99647.66;5091238;28;20964;-65
2022/08/14 02:23:45;;;;;;;3.30;2.50;;;;;;;25.85;44.11;99655.06;5093183;28;20413;-65
2022/08/14 02:26:18;;;;;;;6.00;2.57;;;;;;;25.84;44.06;99646.88;5093150;28;20194;-65
2022/08/14 02:28:45;;;;;;;5.07;2.70;;;;;;;25.82;43.67;99647.31;5091753;28;20440;-65
2022/08/14 02:31:11;;;;;;;3.93;2.73;;;;;;;25.82;44.18;99629.94;5091686;28;20425;-65
2022/08/14 02:33:37;;;;;;;3.70;2.50;;;;;;;25.81;43.90;99637.00;5092362;28;20713;-65
2022/08/14 02:36:02;;;;;;;4.80;2.77;;;;;;;25.80;43.95;99638.25;5093642;28;20431;-65
2022/08/14 02:38:29;;;;;;;3.47;2.20;;;;;;;25.81;43.70;99630.41;5092202;28;20175;-65
2022/08/14 02:40:56;;;;;;;4.47;2.37;;;;;;;25.80;43.75;99635.34;5092207;28;20272;-65
2022/08/14 02:43:22;;;;;;;4.23;2.73;;;;;;;25.79;43.69;99630.03;5093619;28;20447;-65
2022/08/14 02:45:47;;;;;;;4.80;2.43;;;;;;;25.79;43.91;99639.50;5093425;28;20903;-65
2022/08/14 02:48:13;;;;;;;3.67;2.13;;;;;;;25.78;43.85;99637.06;5093406;28;20740;-65
2022/08/14 02:50:41;;;;;;;3.80;2.33;;;;;;;25.77;44.03;99636.25;5092006;28;20269;-65
2022/08/14 02:53:08;;;;;;;5.27;2.33;;;;;;;25.78;43.45;99635.00;5091593;28;20915;-65
2022/08/14 02:55:33;;;;;;;3.70;2.80;;;;;;;25.76;43.48;99628.84;5093028;28;20420;-65
2022/08/14 02:57:58;;;;;;;3.50;2.37;;;;;;;25.77;43.50;99624.69;5093324;28;20417;-65
2022/08/14 03:00:24;;;;;;;4.50;2.70;;;;;;;25.75;43.71;99624.31;5091877;28;20178;-65
2022/08/14 03:02:50;;;;;;;5.23;2.57;;;;;;;25.75;43.95;99621.41;5091790;28;20533;-65
2022/08/14 03:05:19;;;;;;;4.73;2.60;;;;;;;25.74;43.61;99631.38;5092761;28;20424;-65
2022/08/14 03:07:44;;;;;;;4.37;2.40;;;;;;;25.74;43.63;99616.09;5091894;28;20189;-65
2022/08/14 03:10:10;;;;;;;3.80;2.40;;;;;;;25.73;43.33;99611.56;5090631;28;20412;-65
2022/08/14 03:12:35;;;;;;;3.77;2.27;;;;;;;25.72;43.54;99627.28;5090060;28;20292;-66
2022/08/14 03:15:08;;;;;;;6.37;3.30;;;;;;;25.70;43.83;99618.25;5073734;28;20190;-65
2022/08/14 03:17:34;;;;;;;2.80;1.90;;;;;;;25.69;43.60;99617.44;5072335;28;20250;-65
2022/08/14 03:19:59;;;;;;;4.07;2.50;;;;;;;25.69;43.57;99620.31;5071042;28;20439;-65
2022/08/14 03:22:26;;;;;;;3.47;2.67;;;;;;;25.69;43.59;99611.66;5054674;28;20194;-65
2022/08/14 03:24:51;;;;;;;4.87;2.60;;;;;;;25.68;43.97;99612.91;5072572;28;20179;-65
2022/08/14 03:27:17;;;;;;;4.23;2.67;;;;;;;25.69;44.11;99607.94;5072209;28;20444;-65
2022/08/14 03:29:42;;;;;;;3.10;2.43;;;;;;;25.68;43.49;99606.28;5070355;28;20279;-65
2022/08/14 03:32:08;;;;;;;3.33;2.20;;;;;;;25.68;43.97;99604.22;5079471;28;20629;-65
2022/08/14 03:34:33;;;;;;;8.50;2.63;;;;;;;25.66;43.18;99603.88;5088735;28;20182;-65
2022/08/14 03:36:58;;;;;;;3.63;2.67;;;;;;;25.67;44.09;99596.00;5092128;28;20197;-65
2022/08/14 03:39:25;;;;;;;5.10;2.73;;;;;;;25.65;43.80;99590.66;5089053;28;20193;-65
2022/08/14 03:41:52;;;;;;;6.93;2.70;;;;;;;25.65;44.05;99592.75;5092588;28;20668;-65
2022/08/14 03:44:18;;;;;;;4.37;2.27;;;;;;;25.65;43.97;99581.19;5092345;28;20409;-65
2022/08/14 03:46:43;;;;;;;3.63;2.60;;;;;;;25.65;43.61;99581.19;5076983;28;20429;-65
2022/08/14 03:49:09;;;;;;;3.47;2.47;;;;;;;25.64;43.53;99580.34;5071835;28;20202;-65
2022/08/14 03:51:34;;;;;;;3.57;2.40;;;;;;;25.63;43.36;99575.84;5070534;28;20175;-65
2022/08/14 03:54:02;;;;;;;4.57;2.47;;;;;;;25.64;43.88;99579.56;5070721;28;20190;-65
2022/08/14 03:56:28;;;;;;;4.83;2.23;;;;;;;25.61;43.63;99581.28;5070093;28;20179;-65
2022/08/14 03:58:55;;;;;;;4.50;2.77;;;;;;;25.63;43.97;99587.41;5070430;28;20424;-65
2022/08/14 04:01:22;;;;;;;3.73;2.53;;;;;;;25.61;43.88;99587.06;5071949;28;20771;-65
2022/08/14 04:03:48;;;;;;;4.87;2.53;;;;;;;25.61;43.81;99581.28;5090744;28;20422;-65
2022/08/14 04:06:13;;;;;;;3.67;2.97;;;;;;;25.61;43.40;99592.84;5092131;28;20424;-65
2022/08/14 04:08:39;;;;;;;3.03;2.40;;;;;;;25.60;44.06;99591.22;5091744;28;20312;-65
2022/08/14 04:11:05;;;;;;;4.63;2.70;;;;;;;25.60;43.59;99597.00;5091637;28;20218;-65
2022/08/14 04:13:32;;;;;;;5.37;3.10;;;;;;;25.59;43.86;99595.34;5090841;28;20193;-65
2022/08/14 04:15:57;;;;;;;3.70;2.40;;;;;;;25.61;43.75;99603.56;5091603;28;20455;-65
2022/08/14 04:18:23;;;;;;;4.70;2.70;;;;;;;25.59;43.71;99598.22;5091685;28;21099;-65
2022/08/14 04:20:48;;;;;;;3.50;2.60;;;;;;;25.59;43.70;99595.34;5091688;28;20600;-65
2022/08/14 04:23:15;;;;;;;3.30;2.73;;;;;;;25.59;43.79;99604.00;5091246;28;20878;-65
2022/08/14 04:25:41;;;;;;;5.60;2.30;;;;;;;25.58;43.22;99605.28;5090192;28;20185;-65
2022/08/14 04:28:07;;;;;;;4.00;2.57;;;;;;;25.58;43.41;99601.59;5091429;28;20452;-65
2022/08/14 04:30:38;;;;;;;4.30;2.40;;;;;;;25.58;43.58;99599.50;5073348;28;20180;-65
2022/08/14 04:33:07;;;;;;;3.03;2.30;;;;;;;25.56;43.38;99602.03;5091347;28;20420;-65
2022/08/14 04:35:35;;;;;;;3.30;2.40;;;;;;;25.56;43.97;99595.44;5090042;28;20957;-65
2022/08/14 04:43:35;;;;;;;4.80;2.93;;;;;;;25.55;43.77;99602.47;5090576;28;20424;-65
2022/08/14 04:46:07;;;;;;;4.57;2.60;;;;;;;25.55;42.91;99600.41;5089718;28;20448;-65
2022/08/14 04:48:33;;;;;;;3.33;2.30;;;;;;;25.54;43.68;99592.97;5090334;28;20204;-65
2022/08/14 04:50:59;;;;;;;4.70;2.40;;;;;;;25.54;43.35;99583.50;5089352;28;20428;-65
2022/08/14 04:53:25;;;;;;;4.60;2.30;;;;;;;25.53;43.53;99590.56;5089631;28;20249;-65
2022/08/14 04:55:51;;;;;;;4.90;2.57;;;;;;;25.51;43.01;99588.09;5091183;28;20521;-65
2022/08/14 04:58:19;;;;;;;3.50;2.73;;;;;;;25.50;43.21;99572.03;5072793;28;20424;-65
2022/08/14 05:00:46;;;;;;;8.27;2.53;;;;;;;25.48;42.92;99573.72;5090030;28;20178;-66
2022/08/14 05:03:11;;;;;;;7.50;3.43;;;;;;;25.47;42.81;99577.84;5090068;28;20515;-65
2022/08/14 05:05:38;;;;;;;2.97;2.67;;;;;;;25.47;43.18;99575.78;5086945;28;20774;-65
2022/08/14 05:08:07;;;;;;;5.00;2.90;;;;;;;25.47;43.21;99572.06;5089831;28;20556;-65
2022/08/14 05:10:34;;;;;;;6.07;2.70;;;;;;;25.47;43.16;99578.69;5094196;28;20440;-65
2022/08/14 05:12:59;;;;;;;3.10;2.33;;;;;;;25.47;43.15;99581.56;5094284;28;20403;-65
2022/08/14 05:15:28;;;;;;;7.53;2.70;;;;;;;25.47;43.54;99589.41;5094627;28;20836;-65
2022/08/14 05:17:54;;;;;;;3.93;2.57;;;;;;;25.47;43.58;99587.34;5095188;28;20641;-65
2022/08/14 05:20:19;;;;;;;4.43;2.33;;;;;;;25.48;43.31;99582.41;5095216;28;20520;-65
2022/08/14 05:22:45;;;;;;;4.47;2.60;;;;;;;25.48;43.84;99582.41;5094950;28;20565;-65
2022/08/14 05:25:11;;;;;;;4.00;2.90;;;;;;;25.47;43.06;99578.69;5094983;28;20550;-65
2022/08/14 05:27:37;;;;;;;7.00;2.80;;;;;;;25.47;43.30;99574.97;5095009;28;20178;-65
2022/08/14 05:30:04;;;;;;;4.10;2.43;;;;;;;25.46;43.72;99570.44;5091663;28;20801;-66
2022/08/14 05:32:29;;;;;;;6.00;2.87;;;;;;;25.45;43.89;99555.19;5093674;28;20186;-65
2022/08/14 05:34:59;;;;;;;3.87;2.70;;;;;;;25.44;43.28;99550.66;5094676;28;20423;-66
2022/08/14 05:37:26;;;;;;;6.07;3.40;;;;;;;25.44;43.69;99552.75;5093411;28;20628;-66
2022/08/14 05:39:51;;;;;;;5.77;2.70;;;;;;;25.43;43.50;99554.81;5094671;28;20474;-66
2022/08/14 05:42:16;;;;;;;6.30;3.07;;;;;;;25.40;43.27;99558.63;5089954;28;20420;-66
2022/08/14 05:44:42;;;;;;;4.20;2.67;;;;;;;25.39;43.59;99565.63;5094622;28;20541;-66
2022/08/14 05:47:07;;;;;;;3.70;2.90;;;;;;;25.36;43.59;99563.66;5076992;28;20183;-66
2022/08/14 05:49:33;;;;;;;6.17;3.50;;;;;;;25.36;43.65;99569.44;5072828;28;20619;-65
2022/08/14 05:51:59;;;;;;;6.10;3.47;;;;;;;25.34;43.78;99571.94;5074203;28;20183;-65
2022/08/14 05:54:24;;;;;;;4.53;3.20;;;;;;;25.34;43.83;99562.47;5074215;28;20285;-65
2022/08/14 05:56:49;;;;;;;4.60;3.60;;;;;;;25.35;43.45;99564.91;5074260;28;20545;-65
2022/08/14 05:59:15;;;;;;;7.17;3.43;;;;;;;25.37;43.56;99556.59;5074021;28;20646;-65
2022/08/14 06:01:40;;;;;;;6.90;3.50;;;;;;;25.36;43.81;99552.09;5076930;28;20194;-65
2022/08/14 06:04:06;;;;;;;6.10;3.40;;;;;;;25.36;43.82;99546.31;5094212;28;20181;-65
2022/08/14 06:06:31;;;;;;;5.90;3.90;;;;;;;25.35;43.88;99543.84;5093218;28;20175;-65
2022/08/14 06:08:57;;;;;;;7.70;3.73;;;;;;;25.35;44.25;99538.91;5093181;28;20716;-65
2022/08/14 06:11:22;;;;;;;7.37;3.50;;;;;;;25.34;44.14;99536.44;5093070;28;20241;-65
2022/08/14 06:13:47;;;;;;;6.23;3.93;;;;;;;25.34;44.10;99519.91;5093514;28;20186;-65
2022/08/14 06:16:14;;;;;;;4.67;3.40;;;;;;;25.34;44.21;99519.13;5093532;28;20171;-65
2022/08/14 06:18:40;;;;;;;10.10;3.50;;;;;;;25.32;44.28;99516.66;5093565;28;20794;-65
2022/08/14 06:21:05;;;;;;;5.20;3.30;;;;;;;25.33;44.36;99517.50;5092629;28;20440;-65
2022/08/14 06:23:31;;;;;;;6.83;3.83;;;;;;;25.32;44.18;99508.00;5094100;28;20236;-65
2022/08/14 06:25:56;;;;;;;4.23;3.40;;;;;;;25.32;44.49;99510.06;5093952;28;20171;-65
2022/08/14 06:28:23;;;;;;;5.10;3.53;;;;;;;25.32;44.27;99515.84;5093961;28;20201;-65
2022/08/14 06:30:48;;;;;;;8.50;3.53;;;;;;;25.31;44.40;99509.25;5093698;28;20166;-65
2022/08/14 06:33:15;;;;;;;6.30;3.17;;;;;;;25.32;44.14;99496.44;5092212;28;20477;-65
2022/08/14 06:35:40;;;;;;;5.10;3.50;;;;;;;25.32;43.61;99499.31;5092246;28;20190;-65
2022/08/14 06:38:06;;;;;;;6.20;3.63;;;;;;;25.22;44.63;99485.91;5092428;28;20416;-65
2022/08/14 06:40:33;;;;;;;4.80;3.60;;;;;;;25.27;44.66;99475.91;5108895;28;20186;-65
2022/08/14 06:43:20;;;;;;;5.50;3.10;;;;;;;25.29;44.46;99479.19;5092115;28;20268;-65
2022/08/14 06:45:46;;;;;;;5.90;3.50;;;;;;;25.31;44.14;99482.44;5079332;28;20404;-65
2022/08/14 06:48:13;;;;;;;7.37;3.67;;;;;;;25.31;44.67;99479.53;5093321;28;20522;-65
2022/08/14 06:50:39;;;;;;;9.40;3.40;;;;;;;25.31;44.46;99486.16;5093501;28;20184;-65
2022/08/14 06:53:05;;;;;;;4.87;3.93;;;;;;;25.32;44.87;99493.53;5093244;28;20779;-65
2022/08/14 06:55:30;;;;;;;5.67;3.60;;;;;;;25.33;44.52;99492.28;5091878;28;20178;-65
2022/08/14 06:57:56;;;;;;;4.57;3.10;;;;;;;25.33;44.60;99488.59;5093302;28;20178;-65
2022/08/14 07:00:23;;;;;;;5.70;4.00;;;;;;;25.32;45.09;99499.31;5091892;28;20239;-65
2022/08/14 07:05:45;;;;;;;5.87;3.80;;;;;;;25.30;44.96;99495.25;5077852;28;20420;-65
2022/08/14 07:08:25;;;;;;;7.00;3.90;;;;;;;25.31;44.97;99491.94;5088138;28;20444;-65
2022/08/14 07:10:52;;;;;;;5.17;3.30;;;;;;;25.32;45.12;99493.53;5090625;28;20958;-65
2022/08/14 07:13:17;;;;;;;5.00;3.73;;;;;;;25.32;44.90;99508.00;5091753;28;20425;-65
2022/08/14 07:15:45;;;;;;;8.07;3.87;;;;;;;25.32;45.09;99505.09;5093116;28;20424;-65
2022/08/14 07:18:18;;;;;;;5.07;4.47;;;;;;;25.34;44.90;99505.47;5091924;28;20640;-65
2022/08/14 07:20:43;;;;;;;6.07;4.00;;;;;;;25.35;44.77;99497.63;5091472;28;20433;-65
2022/08/14 07:23:09;;;;;;;4.80;3.50;;;;;;;25.33;45.22;99492.28;5092876;28;20427;-65
2022/08/14 07:25:35;;;;;;;6.27;3.73;;;;;;;25.37;45.23;99500.88;5090806;28;20178;-65
2022/08/14 07:28:14;;;;;;;4.10;3.20;;;;;;;25.35;45.37;99510.00;5088844;28;20186;-65
2022/08/14 07:30:39;;;;;;;4.60;3.80;;;;;;;25.36;45.39;99505.03;5092271;28;20424;-65
2022/08/14 07:33:05;;;;;;;6.80;3.90;;;;;;;25.37;45.54;99503.75;5090099;28;20420;-65
2022/08/14 07:35:31;;;;;;;5.03;3.80;;;;;;;25.37;45.50;99507.47;5090519;28;20178;-65
2022/08/14 07:37:57;;;;;;;3.60;3.00;;;;;;;25.38;44.83;99506.19;5091776;28;20178;-65
2022/08/14 07:40:22;;;;;;;5.37;3.90;;;;;;;25.36;45.27;99505.03;5088972;28;20424;-65
2022/08/14 07:42:48;;;;;;;5.73;4.00;;;;;;;25.29;45.90;99511.75;5091201;28;20182;-65
2022/08/14 07:45:13;;;;;;;5.40;4.10;;;;;;;25.27;46.07;99513.47;5089457;28;20174;-65
2022/08/14 07:47:40;;;;;;;5.20;3.80;;;;;;;25.33;45.50;99518.28;5071584;28;20244;-65
2022/08/14 07:50:12;;;;;;;12.63;4.23;;;;;;;25.29;45.94;99523.31;5071040;28;20230;-65
2022/08/14 07:52:37;;;;;;;7.43;3.60;;;;;;;25.30;45.38;99512.59;5071270;28;20453;-65
2022/08/14 07:55:03;;;;;;;6.37;4.00;;;;;;;25.26;45.57;99506.91;5071171;28;20453;-65
2022/08/14 07:57:29;;;;;;;8.10;3.67;;;;;;;25.31;45.70;99506.38;5070018;28;20515;-65
2022/08/14 07:59:54;;;;;;;7.13;4.47;;;;;;;25.34;45.49;99507.56;5071036;28;20424;-65
2022/08/14 08:02:20;;;;;;;8.27;3.47;;;;;;;25.26;45.70;99512.69;5080694;28;20527;-65
2022/08/14 08:04:51;;;;;;;6.10;3.43;;;;;;;25.34;45.54;99501.78;5090151;28;20182;-65
2022/08/14 08:07:16;;;;;;;4.87;3.73;;;;;;;25.30;46.04;99496.09;5089878;28;20523;-65
2022/08/14 08:09:47;;;;;;;9.40;3.67;;;;;;;25.27;45.87;99499.03;5091106;28;20460;-65
2022/08/14 08:12:14;;;;;;;8.50;4.07;;;;;;;25.28;45.59;99487.03;5090943;28;20826;-65
2022/08/14 08:14:40;;;;;;;6.30;3.40;;;;;;;25.35;45.59;99486.88;5090129;28;20937;-65
2022/08/14 08:17:06;;;;;;;7.87;3.80;;;;;;;25.40;45.73;99480.56;5091067;28;20792;-65
2022/08/14 08:19:32;;;;;;;5.53;4.47;;;;;;;25.30;46.50;99489.47;5089743;28;20420;-65
2022/08/14 08:21:57;;;;;;;5.17;3.90;;;;;;;25.26;46.47;99495.34;5090889;28;20908;-65
2022/08/14 08:24:23;;;;;;;5.53;4.07;;;;;;;25.32;45.98;99499.31;5090893;28;20163;-65
2022/08/14 08:26:48;;;;;;;5.00;3.97;;;;;;;25.34;46.40;99496.00;5091087;28;20175;-65
2022/08/14 08:29:22;;;;;;;5.03;3.70;;;;;;;25.37;46.29;99484.34;5073016;28;20198;-65
2022/08/14 08:31:51;;;;;;;5.10;3.60;;;;;;;25.38;46.21;99479.41;5089924;28;20228;-65
2022/08/14 08:34:18;;;;;;;4.90;3.50;;;;;;;25.42;45.71;99491.66;5091208;28;20428;-65
2022/08/14 08:36:43;;;;;;;4.57;3.90;;;;;;;25.44;45.89;99487.06;5089314;28;21263;-65
2022/08/14 08:39:09;;;;;;;9.87;3.73;;;;;;;25.42;46.14;99494.56;5072639;28;20412;-65
2022/08/14 08:41:43;;;;;;;4.60;3.57;;;;;;;25.43;46.22;99488.34;5089063;28;20534;-65
2022/08/14 08:44:08;;;;;;;5.43;4.00;;;;;;;25.42;46.10;99498.28;5089229;28;20562;-65
2022/08/14 08:46:33;;;;;;;6.20;4.10;;;;;;;25.45;45.86;99496.56;5088278;28;20421;-65
2022/08/14 08:48:59;;;;;;;6.10;4.27;;;;;;;25.46;45.71;99499.00;5052589;28;20244;-65
2022/08/14 08:51:29;;;;;;;9.03;4.77;;;;;;;25.48;46.13;99502.25;5071003;28;20183;-65
2022/08/14 08:53:57;;;;;;;6.37;4.33;;;;;;;25.49;45.86;99515.44;5069768;28;20191;-65
2022/08/14 08:56:39;;;;;;;4.77;3.50;;;;;;;25.51;45.97;99506.34;5052967;28;20413;-65
2022/08/14 08:59:24;;;;;;;6.17;4.07;;;;;;;25.53;46.91;99490.16;5071078;28;20508;-65
2022/08/14 09:01:59;;;;;;;6.50;3.90;;;;;;;25.52;46.71;99485.66;5076517;28;20494;-65
2022/08/14 09:04:29;;;;;;;4.70;3.60;;;;;;;25.53;46.55;99461.25;5090750;28;20412;-65
2022/08/14 09:06:55;;;;;;;5.80;4.03;;;;;;;25.56;46.79;99463.25;5089462;28;20515;-65
2022/08/14 09:09:28;;;;;;;5.97;3.50;;;;;;;25.60;46.67;99446.66;5090792;28;20889;-65
2022/08/14 09:11:58;;;;;;;4.60;3.70;;;;;;;25.62;46.59;99441.22;5087899;28;20237;-65
2022/08/14 09:14:28;;;;;;;10.73;3.57;;;;;;;25.64;46.80;99447.34;5089657;28;20412;-65
2022/08/14 09:16:54;;;;;;;8.50;3.20;;;;;;;25.70;46.29;99453.44;5091027;28;20931;-66
2022/08/14 09:19:20;;;;;;;6.73;4.43;;;;;;;25.72;45.69;99454.59;5089103;28;20416;-66
2022/08/14 09:21:45;;;;;;;5.37;3.30;;;;;;;25.71;46.14;99452.16;5089739;28;20264;-66
2022/08/14 09:24:11;;;;;;;5.97;3.80;;;;;;;25.69;45.84;99443.94;5089208;28;20487;-66
2022/08/14 09:26:37;;;;;;;9.50;3.20;;;;;;;25.76;45.00;99443.78;5088522;28;20167;-66
2022/08/14 09:29:03;;;;;;;4.30;3.50;;;;;;;25.78;43.99;99432.56;5104732;28;20194;-66
2022/08/14 09:31:29;;;;;;;8.63;3.57;;;;;;;25.78;44.48;99432.56;5070185;28;20166;-66
2022/08/14 09:33:54;;;;;;;8.70;3.47;;;;;;;25.77;44.91;99427.22;5067894;28;20834;-66
2022/08/14 09:36:25;;;;;;;5.00;3.67;;;;;;;25.78;44.61;99434.63;5068959;28;20587;-66
2022/08/14 09:39:16;;;;;;;4.80;3.63;;;;;;;25.79;44.72;99430.50;5069575;28;20190;-66
2022/08/14 09:41:57;;;;;;;4.70;3.30;;;;;;;25.81;44.97;99434.56;5062580;28;20417;-66
2022/08/14 09:44:44;;;;;;;6.53;3.30;;;;;;;25.86;44.34;99418.72;5090130;28;20886;-66
2022/08/14 09:47:10;;;;;;;7.07;3.37;;;;;;;25.87;43.41;99429.03;5070774;28;20939;-66
2022/08/14 09:49:37;;;;;;;4.20;3.20;;;;;;;25.86;43.70;99418.72;5069918;28;20449;-66
2022/08/14 09:52:21;;;;;;;4.40;3.00;;;;;;;25.93;42.67;99404.09;5068437;28;20203;-66
2022/08/14 09:54:46;;;;;;;4.80;3.20;;;;;;;25.89;42.96;99398.38;5069562;28;20410;-66
2022/08/14 09:57:26;;;;;;;4.60;3.27;;;;;;;25.90;42.71;99397.13;5073934;28;20416;-66
2022/08/14 09:59:52;;;;;;;4.07;3.50;;;;;;;25.97;41.53;99385.41;5056497;28;20265;-66
2022/08/14 10:02:20;;;;;;;5.47;3.27;;;;;;;25.94;42.09;99380.50;5083382;28;20412;-66
2022/08/14 10:04:46;;;;;;;3.47;2.90;;;;;;;25.90;42.67;99373.97;5092475;28;20259;-66
2022/08/14 10:07:12;;;;;;;5.53;3.00;;;;;;;25.96;42.54;99368.50;5092031;28;20435;-66
2022/08/14 10:09:47;;;;;;;3.43;2.67;;;;;;;25.96;42.03;99354.84;5093405;28;21242;-66
2022/08/14 10:12:13;;;;;;;4.10;2.83;;;;;;;25.99;42.19;99353.94;5091512;28;20324;-66
2022/08/14 10:14:39;;;;;;;6.23;2.90;;;;;;;26.02;42.42;99353.03;5082557;28;20421;-66
2022/08/14 10:17:06;;;;;;;3.60;2.93;;;;;;;26.05;41.91;99349.22;5071829;28;20182;-66
2022/08/14 10:19:31;;;;;;;5.30;2.70;;;;;;;26.07;41.70;99355.38;5061694;28;20764;-66
2022/08/14 10:22:06;;;;;;;6.73;3.00;;;;;;;26.10;41.18;99354.44;5054429;28;20432;-66
2022/08/14 10:24:33;;;;;;;3.77;3.10;;;;;;;26.08;42.02;99348.31;5078641;28;20351;-66
2022/08/14 10:26:59;;;;;;;4.37;2.47;;;;;;;26.22;40.61;99342.13;5073303;28;20440;-66
2022/08/14 10:29:36;;;;;;;4.57;2.30;;;;;;;26.18;40.63;99344.31;5091487;28;20817;-66
2022/08/14 10:32:03;;;;;;;3.57;2.93;;;;;;;26.11;40.79;99346.59;5092684;28;20422;-66
2022/08/14 10:34:35;;;;;;;4.17;2.50;;;;;;;26.15;40.74;99330.75;5086357;28;20490;-66
2022/08/14 10:37:02;;;;;;;3.60;2.83;;;;;;;26.09;40.40;99329.69;5072692;28;20417;-66
2022/08/14 10:39:28;;;;;;;3.40;2.70;;;;;;;26.10;41.35;99336.28;5071392;28;20468;-66
2022/08/14 10:42:06;;;;;;;7.20;3.23;;;;;;;26.16;40.66;99340.25;5071997;28;20470;-66
2022/08/14 10:44:37;;;;;;;3.63;2.70;;;;;;;26.18;41.06;99334.81;5084681;28;20174;-66
2022/08/14 10:47:08;;;;;;;6.33;2.70;;;;;;;26.25;38.96;99335.41;5063765;28;20831;-66
2022/08/14 10:49:34;;;;;;;3.17;2.10;;;;;;;26.28;38.45;99336.59;5073284;28;20540;-66
2022/08/14 10:52:07;;;;;;;6.47;2.33;;;;;;;26.18;38.86;99338.53;5071497;28;20508;-66
2022/08/14 10:54:43;;;;;;;4.00;2.67;;;;;;;26.19;39.21;99343.03;5091576;28;20223;-66
2022/08/14 10:57:17;;;;;;;3.90;2.73;;;;;;;26.21;38.85;99343.41;5074489;28;20424;-66
2022/08/14 10:59:48;;;;;;;5.93;2.67;;;;;;;26.27;39.45;99338.69;5092132;28;20773;-66
2022/08/14 11:02:21;;;;;;;4.90;2.50;;;;;;;26.26;39.45;99334.16;5087415;28;20425;-66
2022/08/14 11:05:04;;;;;;;4.90;2.63;;;;;;;26.29;39.08;99339.03;5075720;28;20487;-66
2022/08/14 11:07:30;;;;;;;6.10;3.10;;;;;;;26.33;39.26;99338.91;5072343;28;20506;-66
2022/08/14 11:09:56;;;;;;;3.13;2.60;;;;;;;26.34;39.39;99332.69;5071745;28;20495;-66
2022/08/14 11:12:25;;;;;;;6.53;2.40;;;;;;;26.40;38.40;99330.84;5075721;28;20234;-66
2022/08/14 11:14:55;;;;;;;3.17;2.67;;;;;;;26.52;38.31;99335.06;5072035;28;20500;-66
2022/08/14 11:17:24;;;;;;;5.53;3.00;;;;;;;26.46;37.73;99334.81;5087546;28;20416;-66
2022/08/14 11:19:51;;;;;;;5.07;2.60;;;;;;;26.47;38.41;99332.72;5060598;28;20417;-66
2022/08/14 11:22:16;;;;;;;4.00;2.83;;;;;;;26.43;38.36;99332.84;5091158;28;20950;-66
2022/08/14 11:24:42;;;;;;;8.10;2.90;;;;;;;26.40;37.95;99327.94;5076417;28;20482;-66
2022/08/14 11:27:07;;;;;;;3.70;2.63;;;;;;;26.41;38.23;99331.66;5089064;28;20187;-66
2022/08/14 11:29:34;;;;;;;5.83;2.80;;;;;;;26.49;38.02;99338.88;5083115;28;20207;-66
2022/08/14 11:32:00;;;;;;;9.17;2.40;;;;;;;26.57;37.82;99331.63;5079373;28;20182;-66
2022/08/14 11:34:25;;;;;;;4.70;2.37;;;;;;;26.63;37.44;99330.59;5088551;28;20953;-66
2022/08/14 11:36:50;;;;;;;5.07;2.70;;;;;;;26.56;37.40;99336.63;5074183;28;20179;-66
2022/08/14 11:39:20;;;;;;;4.60;2.33;;;;;;;26.49;37.62;99331.00;5072286;28;20190;-66
2022/08/14 11:41:45;;;;;;;5.50;2.37;;;;;;;26.46;36.92;99331.09;5070901;28;20175;-66
2022/08/14 11:44:11;;;;;;;4.10;2.67;;;;;;;26.37;37.78;99328.88;5073631;28;20841;-66
2022/08/14 11:46:36;;;;;;;3.70;2.40;;;;;;;26.40;37.10;99312.69;5085250;28;20186;-66